createdAt,value
2023-04-19T00:01:31.185Z,9.60
2023-04-19T00:03:58.260Z,9.37
2023-04-19T00:06:26.117Z,9.13
2023-04-19T00:08:52.828Z,9.13
2023-04-19T00:11:19.695Z,9.83
2023-04-19T00:13:46.351Z,8.67
2023-04-19T00:16:13.069Z,9.67
2023-04-19T00:18:40.586Z,8.37
2023-04-19T00:21:07.264Z,9.63
2023-04-19T00:23:34.173Z,8.40
2023-04-19T00:26:04.530Z,9.80
2023-04-19T00:28:31.257Z,8.60
2023-04-19T00:30:58.024Z,8.23
2023-04-19T00:33:24.757Z,9.50
2023-04-19T00:35:51.450Z,8.30
2023-04-19T00:38:19.697Z,7.43
2023-04-19T00:40:46.791Z,8.37
2023-04-19T00:43:20.502Z,7.40
2023-04-19T00:45:48.697Z,8.00
2023-04-19T00:48:15.630Z,7.70
2023-04-19T00:50:43.647Z,7.27
2023-04-19T00:53:10.781Z,7.40
2023-04-19T00:55:39.438Z,7.53
2023-04-19T00:58:08.327Z,8.40
2023-04-19T01:00:35.982Z,7.30
2023-04-19T01:03:02.933Z,6.93
2023-04-19T01:05:30.854Z,7.17
2023-04-19T01:07:57.516Z,7.03
2023-04-19T01:10:24.432Z,7.60
2023-04-19T01:12:51.137Z,7.23
2023-04-19T01:15:17.984Z,7.90
2023-04-19T01:17:44.771Z,7.90
2023-04-19T01:20:12.094Z,6.70
2023-04-19T01:22:40.104Z,7.77
2023-04-19T01:25:07.473Z,7.47
2023-04-19T01:27:34.955Z,8.43
2023-04-19T01:30:01.666Z,7.13
2023-04-19T01:32:28.417Z,7.57
2023-04-19T01:34:56.246Z,8.27
2023-04-19T01:37:23.223Z,7.80
2023-04-19T01:39:49.998Z,7.47
2023-04-19T01:42:16.729Z,8.40
2023-04-19T01:44:43.465Z,8.10
2023-04-19T01:47:11.431Z,7.93
2023-04-19T01:49:40.785Z,7.17
2023-04-19T01:52:08.573Z,7.63
2023-04-19T01:54:35.224Z,7.83
2023-04-19T01:57:02.407Z,7.90
2023-04-19T01:59:29.328Z,8.10
2023-04-19T02:01:56.046Z,8.40
2023-04-19T02:04:24.519Z,8.00
2023-04-19T02:06:51.231Z,8.50
2023-04-19T02:09:17.882Z,7.70
2023-04-19T02:11:46.173Z,8.27
2023-04-19T02:14:12.904Z,8.70
2023-04-19T02:16:39.748Z,8.80
2023-04-19T02:19:06.877Z,9.20
2023-04-19T02:21:33.559Z,10.20
2023-04-19T02:24:01.051Z,10.70
2023-04-19T02:26:27.778Z,12.40
2023-04-19T02:28:54.485Z,12.50
2023-04-19T02:31:21.239Z,11.40
2023-04-19T02:33:47.964Z,13.00
2023-04-19T02:36:14.680Z,13.23
2023-04-19T02:38:41.477Z,13.10
2023-04-19T02:41:08.754Z,11.30
2023-04-19T02:43:39.193Z,12.70
2023-04-19T02:46:06.384Z,11.57
2023-04-19T02:48:33.182Z,11.57
2023-04-19T02:51:00.018Z,11.77
2023-04-19T02:53:27.269Z,10.20
2023-04-19T02:55:53.974Z,10.13
2023-04-19T02:58:20.888Z,12.83
2023-04-19T03:00:57.422Z,11.27
2023-04-19T03:03:24.842Z,11.63
2023-04-19T03:05:51.812Z,10.80
2023-04-19T03:08:18.652Z,11.60
2023-04-19T03:10:46.042Z,11.27
2023-04-19T03:13:13.187Z,12.00
2023-04-19T03:15:40.180Z,11.60
2023-04-19T03:18:07.531Z,12.80
2023-04-19T03:20:36.192Z,12.80
2023-04-19T03:23:03.271Z,14.07
2023-04-19T03:25:30.500Z,13.40
2023-04-19T03:28:08.904Z,13.60
2023-04-19T03:30:58.507Z,13.97
2023-04-19T03:33:25.230Z,12.70
2023-04-19T03:35:52.195Z,13.10
2023-04-19T03:38:19.301Z,13.20
2023-04-19T03:40:47.027Z,14.47
2023-04-19T03:43:16.002Z,14.27
2023-04-19T03:45:42.753Z,15.40
2023-04-19T03:48:09.859Z,13.43
2023-04-19T03:50:36.539Z,13.63
2023-04-19T03:53:05.167Z,13.63
2023-04-19T03:55:32.143Z,12.77
2023-04-19T03:57:59.477Z,13.40
2023-04-19T04:00:36.824Z,14.47
2023-04-19T04:03:04.380Z,13.57
2023-04-19T04:05:31.471Z,13.60
2023-04-19T04:07:59.893Z,14.20
2023-04-19T04:10:26.717Z,12.90
2023-04-19T04:12:53.454Z,13.47
2023-04-19T04:15:28.090Z,13.10
2023-04-19T04:17:56.200Z,14.00
2023-04-19T04:20:22.991Z,12.53
2023-04-19T04:22:53.221Z,12.77
2023-04-19T04:25:22.795Z,13.07
2023-04-19T04:27:54.412Z,13.00
2023-04-19T04:30:25.221Z,12.40
2023-04-19T04:32:53.497Z,13.07
2023-04-19T04:35:20.629Z,13.17
2023-04-19T04:37:56.611Z,13.10
2023-04-19T04:40:23.385Z,12.20
2023-04-19T04:42:52.825Z,14.07
2023-04-19T04:45:19.761Z,13.03
2023-04-19T04:47:46.706Z,13.03
2023-04-19T04:50:14.597Z,12.63
2023-04-19T04:52:41.385Z,13.60
2023-04-19T04:55:16.586Z,12.43
2023-04-19T04:57:44.403Z,13.47
2023-04-19T05:00:21.333Z,13.20
2023-04-19T05:02:57.321Z,13.20
2023-04-19T05:05:24.657Z,12.10
2023-04-19T05:07:51.361Z,14.47
2023-04-19T05:10:18.066Z,12.80
2023-04-19T05:12:47.159Z,13.70
2023-04-19T05:15:13.929Z,13.97
2023-04-19T05:17:46.253Z,13.27
2023-04-19T05:20:13.882Z,13.27
2023-04-19T05:22:41.447Z,13.70
2023-04-19T05:25:11.489Z,13.00
2023-04-19T05:27:39.144Z,13.23
2023-04-19T05:30:07.041Z,14.80
2023-04-19T05:32:35.903Z,13.73
2023-04-19T05:35:04.707Z,14.00
2023-04-19T05:37:31.392Z,14.70
2023-04-19T05:39:58.285Z,14.67
2023-04-19T05:42:25.753Z,14.77
2023-04-19T05:44:52.450Z,15.30
2023-04-19T05:47:20.418Z,14.00
2023-04-19T05:50:14.981Z,12.27
2023-04-19T05:52:47.220Z,11.00
2023-04-19T05:55:14.142Z,10.77
2023-04-19T05:57:44.335Z,9.77
2023-04-19T06:00:11.817Z,8.97
2023-04-19T06:02:48.046Z,9.63
2023-04-19T06:05:14.974Z,8.10
2023-04-19T06:07:47.239Z,9.87
2023-04-19T06:10:22.076Z,9.30
2023-04-19T06:12:48.775Z,8.13
2023-04-19T06:15:15.592Z,7.70
2023-04-19T06:17:42.575Z,8.33
2023-04-19T06:20:10.109Z,8.50
2023-04-19T06:22:44.894Z,8.00
2023-04-19T06:25:12.066Z,7.83
2023-04-19T06:27:38.971Z,7.30
2023-04-19T06:30:06.750Z,8.00
2023-04-19T06:32:33.474Z,8.50
2023-04-19T06:35:00.257Z,7.67
2023-04-19T06:37:27.063Z,8.33
2023-04-19T06:39:54.194Z,7.10
2023-04-19T06:42:21.373Z,6.47
2023-04-19T06:44:48.001Z,7.10
2023-04-19T06:47:15.073Z,5.40
2023-04-19T06:49:41.721Z,6.40
2023-04-19T06:52:08.372Z,6.00
2023-04-19T06:54:35.017Z,5.77
2023-04-19T06:57:02.951Z,6.20
2023-04-19T06:59:32.155Z,7.07
2023-04-19T07:01:59.521Z,5.93
2023-04-19T07:04:26.824Z,6.60
2023-04-19T07:06:53.657Z,6.07
2023-04-19T07:09:20.856Z,5.43
2023-04-19T07:11:48.299Z,5.23
2023-04-19T07:14:15.313Z,5.10
2023-04-19T07:16:42.216Z,5.97
2023-04-19T07:19:08.852Z,5.23
2023-04-19T07:21:35.583Z,5.83
2023-04-19T07:24:02.470Z,6.53
2023-04-19T07:26:29.292Z,5.53
2023-04-19T07:28:56.870Z,6.10
2023-04-19T07:31:27.017Z,5.50
2023-04-19T07:33:54.389Z,6.10
2023-04-19T07:36:21.479Z,6.37
2023-04-19T07:38:48.491Z,5.63
2023-04-19T07:41:15.166Z,5.77
2023-04-19T07:43:41.965Z,6.33
2023-04-19T07:46:13.441Z,5.67
2023-04-19T07:48:40.318Z,6.27
2023-04-19T07:51:16.724Z,5.43
2023-04-19T07:53:43.993Z,6.57
2023-04-19T07:56:13.026Z,5.93
2023-04-19T07:58:41.205Z,8.90
2023-04-19T08:01:07.973Z,5.30
2023-04-19T08:03:35.469Z,6.00
2023-04-19T08:06:07.984Z,7.60
2023-04-19T08:08:36.178Z,5.23
2023-04-19T08:11:03.257Z,7.67
2023-04-19T08:13:30.374Z,5.27
2023-04-19T08:18:27.329Z,6.40
2023-04-19T08:20:54.107Z,5.70
2023-04-19T08:23:26.035Z,6.40
2023-04-19T08:25:59.127Z,4.90
2023-04-19T08:28:25.773Z,5.70
2023-04-19T08:30:54.615Z,5.20
2023-04-19T08:33:21.493Z,4.80
2023-04-19T08:35:48.492Z,4.73
2023-04-19T08:38:15.315Z,4.77
2023-04-19T08:40:48.652Z,5.63
2023-04-19T08:43:18.098Z,5.90
2023-04-19T08:45:48.079Z,5.00
2023-04-19T08:48:16.401Z,5.30
2023-04-19T08:51:00.477Z,4.47
2023-04-19T08:53:30.571Z,5.30
2023-04-19T09:01:04.787Z,5.20
2023-04-19T09:03:40.847Z,5.00
2023-04-19T09:06:14.461Z,4.50
2023-04-19T09:08:41.798Z,5.40
2023-04-19T09:11:09.001Z,5.57
2023-04-19T09:13:38.698Z,4.00
2023-04-19T09:16:07.822Z,5.10
2023-04-19T09:19:02.726Z,4.40
2023-04-19T09:21:39.717Z,4.37
2023-04-19T09:24:07.126Z,4.37
2023-04-19T09:26:34.265Z,3.83
2023-04-19T09:29:05.082Z,4.00
2023-04-19T09:31:50.153Z,3.93
2023-04-19T09:34:19.408Z,4.57
2023-04-19T09:36:46.905Z,4.50
2023-04-19T09:39:14.599Z,3.87
2023-04-19T09:41:54.794Z,4.17
2023-04-19T09:46:53.511Z,4.80
2023-04-19T09:49:45.631Z,3.97
2023-04-19T09:52:14.774Z,3.80
2023-04-19T09:54:41.797Z,3.73
2023-04-19T09:57:08.631Z,4.30
2023-04-19T09:59:35.349Z,3.63
2023-04-19T10:02:04.486Z,4.37
2023-04-19T10:04:44.029Z,4.50
2023-04-19T10:07:30.139Z,3.90
2023-04-19T10:10:11.739Z,4.13
2023-04-19T10:13:15.444Z,3.57
2023-04-19T10:15:50.011Z,4.17
2023-04-19T10:18:19.545Z,3.10
2023-04-19T10:20:55.233Z,3.30
2023-04-19T10:23:22.851Z,3.40
2023-04-19T10:25:54.917Z,3.30
2023-04-19T10:28:21.600Z,3.90
2023-04-19T10:31:03.453Z,4.40
2023-04-19T10:33:35.474Z,3.67
2023-04-19T10:36:02.585Z,3.57
2023-04-19T10:38:56.290Z,3.43
2023-04-19T10:41:23.267Z,3.90
2023-04-19T10:43:56.393Z,3.23
2023-04-19T10:46:24.330Z,3.50
2023-04-19T10:49:01.465Z,3.90
2023-04-19T10:51:29.400Z,3.20
2023-04-19T10:53:58.751Z,3.30
2023-04-19T10:56:34.343Z,3.27
2023-04-19T10:59:01.183Z,3.27
2023-04-19T11:01:53.639Z,2.97
2023-04-19T11:04:31.737Z,3.00
2023-04-19T11:07:07.221Z,3.17
2023-04-19T11:09:38.719Z,3.43
2023-04-19T11:12:10.561Z,2.40
2023-04-19T11:14:39.906Z,2.50
2023-04-19T11:17:27.102Z,3.33
2023-04-19T11:20:06.748Z,2.80
2023-04-19T11:22:35.862Z,2.37
2023-04-19T11:25:22.064Z,2.90
2023-04-19T11:27:50.913Z,2.40
2023-04-19T11:30:19.935Z,2.47
2023-04-19T11:32:54.573Z,2.50
2023-04-19T11:35:26.220Z,1.97
2023-04-19T11:37:54.096Z,2.40
2023-04-19T11:40:22.580Z,1.60
2023-04-19T11:43:02.605Z,3.27
2023-04-19T11:45:39.848Z,2.33
2023-04-19T11:48:13.135Z,1.90
2023-04-19T11:50:40.766Z,1.60
2023-04-19T11:53:17.566Z,1.93
2023-04-19T11:55:46.232Z,2.30
2023-04-19T11:58:39.813Z,2.10
2023-04-19T12:01:19.870Z,2.00
2023-04-19T12:03:49.017Z,2.20
2023-04-19T12:06:26.783Z,2.00
2023-04-19T12:08:55.411Z,2.47
2023-04-19T12:11:45.783Z,2.37
2023-04-19T12:14:15.077Z,2.50
2023-04-19T12:16:44.684Z,2.97
2023-04-19T12:19:20.582Z,2.50
2023-04-19T12:21:48.533Z,2.40
2023-04-19T12:24:16.068Z,2.60
2023-04-19T12:26:57.247Z,2.80
2023-04-19T12:29:24.397Z,2.87
2023-04-19T12:31:51.416Z,3.03
2023-04-19T12:34:18.122Z,2.57
2023-04-19T12:36:44.777Z,2.37
2023-04-19T12:39:11.966Z,2.47
2023-04-19T12:41:38.714Z,2.87
2023-04-19T12:44:05.550Z,2.30
2023-04-19T12:46:32.366Z,2.60
2023-04-19T12:48:59.191Z,2.20
2023-04-19T12:51:26.124Z,2.30
2023-04-19T12:53:53.513Z,2.37
2023-04-19T12:56:21.340Z,2.17
2023-04-19T12:58:48.431Z,2.43
2023-04-19T13:01:15.345Z,3.13
2023-04-19T13:03:42.303Z,2.30
2023-04-19T13:06:11.049Z,2.43
2023-04-19T13:08:44.568Z,2.40
2023-04-19T13:11:13.918Z,2.63
2023-04-19T13:13:40.621Z,2.70
2023-04-19T13:16:07.955Z,2.87
2023-04-19T13:18:35.324Z,2.23
2023-04-19T13:21:02.081Z,2.50
2023-04-19T13:23:28.732Z,2.87
2023-04-19T13:25:55.496Z,2.70
2023-04-19T13:28:22.156Z,2.87
2023-04-19T13:30:48.883Z,2.83
2023-04-19T13:33:15.664Z,3.80
2023-04-19T13:35:42.365Z,2.50
2023-04-19T13:38:09.313Z,2.87
2023-04-19T13:40:35.993Z,2.77
2023-04-19T13:43:02.725Z,2.70
2023-04-19T13:45:29.386Z,2.60
2023-04-19T13:47:56.176Z,2.73
2023-04-19T13:50:22.851Z,2.57
2023-04-19T13:52:49.546Z,3.17
2023-04-19T13:55:16.221Z,2.50
2023-04-19T13:57:42.870Z,2.90
2023-04-19T14:00:09.958Z,3.70
2023-04-19T14:02:37.367Z,3.10
2023-04-19T14:05:04.567Z,2.93
2023-04-19T14:07:32.412Z,2.70
2023-04-19T14:09:59.074Z,3.00
2023-04-19T14:12:27.026Z,2.80
2023-04-19T14:14:53.677Z,3.20
2023-04-19T14:17:20.578Z,2.43
2023-04-19T14:19:47.222Z,2.90
2023-04-19T14:22:15.707Z,2.30
2023-04-19T14:24:42.433Z,2.90
2023-04-19T14:27:11.423Z,2.90
2023-04-19T14:29:38.847Z,2.40
2023-04-19T14:32:21.468Z,2.53
2023-04-19T14:34:51.455Z,2.77
2023-04-19T14:37:19.741Z,2.63
2023-04-19T14:39:46.536Z,2.73
2023-04-19T14:42:13.640Z,3.00
2023-04-19T14:44:40.865Z,3.70
2023-04-19T14:47:07.739Z,2.50
2023-04-19T14:49:34.490Z,2.80
2023-04-19T14:52:01.240Z,2.57
2023-04-19T14:54:27.989Z,2.33
2023-04-19T14:56:54.651Z,2.63
2023-04-19T14:59:21.529Z,2.47
2023-04-19T15:01:48.330Z,2.87
2023-04-19T15:04:15.308Z,2.60
2023-04-19T15:06:42.118Z,2.90
2023-04-19T15:09:08.749Z,2.40
2023-04-19T15:11:35.530Z,2.90
2023-04-19T15:14:02.399Z,2.63
2023-04-19T15:16:29.359Z,2.60
2023-04-19T15:18:56.101Z,2.20
2023-04-19T15:21:24.688Z,2.80
2023-04-19T15:23:51.675Z,2.70
2023-04-19T15:26:18.471Z,2.30
2023-04-19T15:28:45.997Z,2.10
2023-04-19T15:31:13.247Z,2.70
2023-04-19T15:33:40.343Z,2.43
2023-04-19T15:36:07.271Z,2.43
2023-04-19T15:38:34.036Z,2.93
2023-04-19T15:41:01.444Z,3.13
2023-04-19T15:43:28.211Z,2.97
2023-04-19T15:45:55.259Z,2.70
2023-04-19T15:48:22.150Z,2.70
2023-04-19T15:50:49.502Z,3.23
2023-04-19T15:53:16.831Z,3.20
2023-04-19T15:55:46.430Z,2.87
2023-04-19T15:58:13.921Z,2.60
2023-04-19T16:00:40.586Z,3.20
2023-04-19T16:03:09.664Z,3.87
2023-04-19T16:05:36.425Z,2.83
2023-04-19T16:08:11.587Z,2.40
2023-04-19T16:10:39.236Z,4.20
2023-04-19T16:13:06.344Z,3.80
2023-04-19T16:15:33.417Z,2.97
2023-04-19T16:18:00.230Z,2.93
2023-04-19T16:20:27.130Z,2.90
2023-04-19T16:22:53.840Z,2.60
2023-04-19T16:25:20.608Z,2.60
2023-04-19T16:27:47.955Z,2.60
2023-04-19T16:30:16.321Z,2.50
2023-04-19T16:32:43.394Z,2.80
2023-04-19T16:35:10.759Z,3.23
2023-04-19T16:37:37.580Z,2.40
2023-04-19T16:40:09.687Z,2.40
2023-04-19T16:42:37.972Z,2.03
2023-04-19T16:45:06.257Z,2.13
2023-04-19T16:47:33.465Z,1.83
2023-04-19T16:50:00.638Z,2.20
2023-04-19T16:52:28.911Z,2.20
2023-04-19T16:54:55.877Z,2.17
2023-04-19T16:57:23.766Z,2.10
2023-04-19T16:59:50.801Z,2.40
2023-04-19T17:02:18.036Z,2.00
2023-04-19T17:04:45.272Z,2.23
2023-04-19T17:07:12.450Z,1.93
2023-04-19T17:09:39.256Z,2.60
2023-04-19T17:12:06.925Z,1.77
2023-04-19T17:14:35.038Z,1.93
2023-04-19T17:17:02.020Z,1.70
2023-04-19T17:19:28.812Z,1.90
2023-04-19T17:21:55.968Z,1.80
2023-04-19T17:24:22.772Z,2.63
2023-04-19T17:26:50.132Z,2.03
2023-04-19T17:29:17.257Z,1.60
2023-04-19T17:31:44.392Z,1.80
2023-04-19T17:34:11.389Z,2.67
2023-04-19T17:36:38.255Z,1.90
2023-04-19T17:39:06.594Z,2.20
2023-04-19T17:41:33.744Z,1.93
2023-04-19T17:44:00.625Z,2.40
2023-04-19T17:46:27.597Z,2.00
2023-04-19T17:48:55.386Z,2.10
2023-04-19T17:51:22.482Z,2.00
2023-04-19T17:53:49.580Z,2.63
2023-04-19T17:56:16.443Z,1.60
2023-04-19T17:58:43.219Z,3.00
2023-04-19T18:01:10.417Z,2.23
2023-04-19T18:03:37.964Z,2.30
2023-04-19T18:06:06.030Z,1.93
2023-04-19T18:08:32.819Z,2.20
2023-04-19T18:10:59.661Z,2.00
2023-04-19T18:13:27.794Z,2.20
2023-04-19T18:15:54.823Z,2.00
2023-04-19T18:18:21.723Z,2.23
2023-04-19T18:20:49.899Z,2.17
2023-04-19T18:23:17.358Z,2.13
2023-04-19T18:25:54.279Z,2.23
2023-04-19T18:28:21.258Z,2.30
2023-04-19T18:30:48.269Z,3.00
2023-04-19T18:33:15.104Z,3.00
2023-04-19T18:35:41.951Z,2.57
2023-04-19T18:38:09.607Z,2.20
2023-04-19T18:40:36.334Z,2.57
2023-04-19T18:43:03.121Z,3.00
2023-04-19T18:45:31.304Z,2.70
2023-04-19T18:47:59.947Z,2.10
2023-04-19T18:50:26.846Z,3.10
2023-04-19T18:52:53.744Z,2.60
2023-04-19T18:55:20.559Z,2.47
2023-04-19T18:57:47.344Z,2.50
2023-04-19T19:00:15.075Z,2.70
2023-04-19T19:02:43.484Z,2.63
2023-04-19T19:05:13.813Z,2.90
2023-04-19T19:07:41.802Z,2.60
2023-04-19T19:12:39.614Z,2.50
2023-04-19T19:15:07.429Z,2.53
2023-04-19T19:17:34.164Z,3.10
2023-04-19T19:20:02.015Z,2.53
2023-04-19T19:22:29.288Z,2.70
2023-04-19T19:24:56.686Z,2.97
2023-04-19T19:27:24.099Z,3.10
2023-04-19T19:29:51.326Z,2.80
2023-04-19T19:32:19.175Z,3.67
2023-04-19T19:34:55.780Z,4.20
2023-04-19T19:37:27.004Z,3.60
2023-04-19T19:39:56.381Z,5.97
2023-04-19T19:42:24.057Z,7.73
2023-04-19T19:44:55.275Z,5.10
2023-04-19T19:47:23.838Z,4.10
2023-04-19T19:50:31.570Z,5.10
2023-04-19T19:52:37.702Z,6.43
2023-04-19T19:55:05.400Z,6.53
2023-04-19T19:58:18.638Z,3.17
2023-04-19T20:00:42.056Z,3.87
2023-04-19T20:03:06.667Z,3.50
2023-04-19T20:05:33.868Z,3.13
2023-04-19T20:08:12.542Z,2.80
2023-04-19T20:10:41.206Z,3.70
2023-04-19T20:13:08.047Z,3.17
2023-04-19T20:15:36.601Z,3.10
2023-04-19T20:18:04.362Z,3.23
2023-04-19T20:20:31.444Z,3.37
2023-04-19T20:22:58.492Z,3.33
2023-04-19T20:25:25.399Z,3.07
2023-04-19T20:27:52.150Z,3.50
2023-04-19T20:30:18.893Z,3.40
2023-04-19T20:32:45.962Z,3.67
2023-04-19T20:35:12.845Z,3.67
2023-04-19T20:37:42.461Z,4.40
2023-04-19T20:40:12.273Z,3.77
2023-04-19T20:42:39.376Z,4.17
2023-04-19T20:45:07.792Z,3.93
2023-04-19T20:47:34.602Z,4.33
2023-04-19T20:50:01.350Z,4.07
2023-04-19T20:52:28.126Z,3.70
2023-04-19T20:54:56.511Z,4.20
2023-04-19T20:57:23.273Z,3.83
2023-04-19T20:59:50.836Z,3.73
2023-04-19T21:02:18.058Z,4.10
2023-04-19T21:04:44.854Z,3.47
2023-04-19T21:07:11.602Z,3.20
2023-04-19T21:09:38.357Z,3.20
2023-04-19T21:12:05.230Z,4.40
2023-04-19T21:14:33.584Z,4.57
2023-04-19T21:17:01.345Z,4.23
2023-04-19T21:19:28.218Z,3.30
2023-04-19T21:21:54.961Z,3.80
2023-04-19T21:24:21.800Z,3.63
2023-04-19T21:26:50.301Z,3.70
2023-04-19T21:29:17.302Z,3.43
2023-04-19T21:31:44.609Z,3.80
2023-04-19T21:34:11.491Z,4.00
2023-04-19T21:36:38.556Z,2.97
2023-04-19T21:39:05.288Z,3.50
2023-04-19T21:41:31.996Z,3.40
2023-04-19T21:43:58.725Z,3.10
2023-04-19T21:46:25.881Z,3.80
2023-04-19T21:48:55.510Z,4.03
2023-04-19T21:51:22.812Z,3.40
2023-04-19T21:53:49.543Z,3.40
2023-04-19T21:56:16.842Z,3.63
2023-04-19T21:58:43.543Z,3.40
2023-04-19T22:01:10.775Z,3.47
2023-04-19T22:03:39.103Z,3.23
2023-04-19T22:06:06.725Z,3.97
2023-04-19T22:08:34.339Z,3.90
2023-04-19T22:11:01.494Z,3.60
2023-04-19T22:13:30.088Z,3.37
2023-04-19T22:15:57.170Z,3.77
2023-04-19T22:18:24.139Z,3.77
2023-04-19T22:20:52.101Z,3.70
2023-04-19T22:23:19.719Z,3.23
2023-04-19T22:25:46.420Z,3.70
2023-04-19T22:28:13.131Z,3.20
2023-04-19T22:30:39.900Z,3.50
2023-04-19T22:33:06.958Z,3.77
2023-04-19T22:35:34.277Z,3.40
2023-04-19T22:38:01.521Z,3.70
2023-04-19T22:40:28.349Z,3.60
2023-04-19T22:42:55.544Z,3.30
2023-04-19T22:45:22.264Z,3.63
2023-04-19T22:47:49.051Z,3.20
2023-04-19T22:50:15.968Z,4.80
2023-04-19T22:52:44.546Z,3.30
2023-04-19T22:55:11.727Z,2.93
2023-04-19T22:57:38.752Z,3.47
2023-04-19T23:00:06.908Z,4.20
2023-04-19T23:02:33.677Z,3.90
2023-04-19T23:05:00.569Z,3.30
2023-04-19T23:07:28.704Z,3.50
2023-04-19T23:09:55.942Z,4.13
2023-04-19T23:12:24.341Z,3.30
2023-04-19T23:14:51.090Z,3.33
2023-04-19T23:17:17.979Z,3.37
2023-04-19T23:19:44.756Z,3.07
2023-04-19T23:22:11.392Z,3.53
2023-04-19T23:24:38.082Z,3.00
2023-04-19T23:27:05.098Z,3.40
2023-04-19T23:29:31.856Z,3.90
2023-04-19T23:31:58.490Z,3.30
2023-04-19T23:34:25.265Z,3.50
2023-04-19T23:36:51.879Z,2.93
2023-04-19T23:39:19.107Z,3.37
2023-04-19T23:41:46.031Z,3.70
2023-04-19T23:44:12.720Z,3.83
2023-04-19T23:46:40.676Z,2.90
2023-04-19T23:49:08.565Z,4.13
2023-04-19T23:51:36.494Z,3.10
2023-04-19T23:54:03.236Z,3.53
2023-04-19T23:56:29.893Z,3.87
2023-04-19T23:58:57.316Z,3.17
